createdAt,value
2023-02-07T00:01:25.085Z,0.70
2023-02-07T00:03:52.470Z,0.70
2023-02-07T00:06:29.041Z,0.70
2023-02-07T00:08:56.490Z,0.70
2023-02-07T00:11:24.050Z,0.80
2023-02-07T00:13:54.423Z,0.80
2023-02-07T00:16:22.772Z,0.80
2023-02-07T00:18:50.104Z,0.60
2023-02-07T00:21:21.030Z,0.60
2023-02-07T00:23:48.039Z,0.60
2023-02-07T00:26:16.151Z,0.70
2023-02-07T00:28:43.226Z,0.70
2023-02-07T00:31:14.210Z,0.70
2023-02-07T00:33:43.022Z,0.70
2023-02-07T00:36:13.286Z,0.80
2023-02-07T00:38:40.252Z,0.70
2023-02-07T00:41:07.189Z,0.70
2023-02-07T00:43:34.546Z,0.70
2023-02-07T00:46:05.712Z,0.80
2023-02-07T00:48:33.847Z,0.80
2023-02-07T00:51:01.073Z,0.80
2023-02-07T00:53:29.344Z,0.90
2023-02-07T00:55:56.145Z,0.90
2023-02-07T00:58:23.675Z,1.00
2023-02-07T01:00:50.732Z,0.90
2023-02-07T01:03:18.495Z,0.90
2023-02-07T01:05:45.283Z,0.90
2023-02-07T01:08:12.156Z,0.90
2023-02-07T01:10:44.122Z,0.90
2023-02-07T01:13:12.047Z,0.90
2023-02-07T01:15:45.176Z,0.90
2023-02-07T01:18:12.733Z,0.90
2023-02-07T01:20:39.943Z,1.00
2023-02-07T01:23:07.211Z,1.00
2023-02-07T01:25:34.330Z,1.00
2023-02-07T01:28:01.419Z,1.10
2023-02-07T01:30:28.457Z,1.10
2023-02-07T01:32:55.380Z,1.10
2023-02-07T01:35:22.279Z,1.10
2023-02-07T01:37:49.591Z,1.00
2023-02-07T01:40:16.673Z,1.00
2023-02-07T01:42:43.407Z,1.00
2023-02-07T01:45:24.366Z,0.90
2023-02-07T01:47:53.894Z,0.90
2023-02-07T01:50:21.546Z,1.00
2023-02-07T01:52:49.111Z,0.90
2023-02-07T01:55:25.601Z,1.00
2023-02-07T01:57:53.565Z,1.00
2023-02-07T02:00:21.052Z,1.10
2023-02-07T02:02:47.927Z,1.10
2023-02-07T02:05:16.422Z,1.10
2023-02-07T02:07:43.268Z,1.10
2023-02-07T02:10:20.231Z,1.10
2023-02-07T02:13:05.841Z,1.10
2023-02-07T02:15:36.072Z,1.10
2023-02-07T02:18:48.279Z,1.20
2023-02-07T02:21:58.491Z,1.20
2023-02-07T02:24:56.012Z,1.20
2023-02-07T02:27:41.751Z,1.20
2023-02-07T02:30:25.726Z,1.20
2023-02-07T02:33:01.044Z,1.20
2023-02-07T02:35:37.813Z,1.20
2023-02-07T02:38:43.107Z,1.20
2023-02-07T02:41:14.255Z,1.30
2023-02-07T02:43:46.863Z,1.30
2023-02-07T02:46:16.656Z,1.30
2023-02-07T02:48:44.714Z,1.30
2023-02-07T02:51:12.051Z,1.30
2023-02-07T02:53:38.859Z,1.30
2023-02-07T02:56:24.528Z,1.30
2023-02-07T02:59:07.372Z,1.30
2023-02-07T03:01:36.922Z,1.30
2023-02-07T03:04:20.235Z,1.30
2023-02-07T03:07:13.076Z,1.30
2023-02-07T03:10:10.236Z,1.30
2023-02-07T03:12:59.240Z,1.30
2023-02-07T03:15:50.817Z,1.20
2023-02-07T03:18:31.631Z,1.20
2023-02-07T03:21:08.448Z,1.20
2023-02-07T03:23:36.509Z,1.20
2023-02-07T03:26:05.627Z,1.30
2023-02-07T03:28:33.549Z,1.30
2023-02-07T03:31:02.728Z,1.30
2023-02-07T03:33:29.905Z,1.30
2023-02-07T03:35:58.931Z,1.40
2023-02-07T03:38:26.074Z,1.40
2023-02-07T03:40:59.265Z,1.40
2023-02-07T03:43:30.267Z,1.50
2023-02-07T03:45:57.557Z,1.40
2023-02-07T03:48:24.491Z,1.40
2023-02-07T03:50:53.062Z,1.40
2023-02-07T03:53:20.741Z,1.30
2023-02-07T03:55:47.743Z,1.40
2023-02-07T03:58:14.789Z,1.40
2023-02-07T04:00:41.592Z,1.40
2023-02-07T04:03:08.377Z,1.40
2023-02-07T04:05:35.437Z,1.40
2023-02-07T04:08:02.562Z,1.40
2023-02-07T04:10:29.419Z,1.40
2023-02-07T04:12:56.319Z,1.40
2023-02-07T04:15:23.435Z,1.30
2023-02-07T04:17:50.207Z,1.40
2023-02-07T04:20:17.184Z,1.50
2023-02-07T04:22:43.943Z,1.50
2023-02-07T04:25:10.914Z,1.60
2023-02-07T04:27:37.683Z,1.70
2023-02-07T04:30:04.964Z,1.60
2023-02-07T04:32:31.720Z,1.50
2023-02-07T04:34:58.589Z,1.60
2023-02-07T04:37:25.372Z,1.70
2023-02-07T04:39:52.222Z,1.70
2023-02-07T04:42:18.949Z,1.70
2023-02-07T04:44:45.732Z,1.80
2023-02-07T04:47:12.943Z,1.80
2023-02-07T04:49:39.690Z,1.80
2023-02-07T04:52:06.455Z,1.80
2023-02-07T04:54:33.316Z,1.80
2023-02-07T04:57:00.122Z,1.80
2023-02-07T04:59:26.927Z,1.80
2023-02-07T05:01:53.736Z,1.90
2023-02-07T05:04:20.691Z,1.90
2023-02-07T05:06:47.852Z,1.90
2023-02-07T05:09:14.751Z,1.90
2023-02-07T05:11:41.510Z,1.90
2023-02-07T05:14:08.318Z,1.90
2023-02-07T05:16:35.166Z,2.00
2023-02-07T05:19:01.951Z,2.00
2023-02-07T05:33:06.049Z,1.90
2023-02-07T05:35:41.244Z,1.80
2023-02-07T05:38:10.754Z,1.80
2023-02-07T05:40:39.396Z,1.80
2023-02-07T05:43:06.985Z,1.90
2023-02-07T05:45:34.097Z,1.90
2023-02-07T05:48:01.050Z,2.00
2023-02-07T05:50:28.490Z,2.00
2023-02-07T05:52:55.228Z,2.10
2023-02-07T05:55:22.077Z,2.10
2023-02-07T05:57:48.977Z,2.10
2023-02-07T06:00:17.632Z,2.00
2023-02-07T06:02:44.951Z,2.00
2023-02-07T06:05:18.359Z,2.00
2023-02-07T06:07:45.221Z,2.10
2023-02-07T06:10:13.290Z,2.10
2023-02-07T06:12:40.151Z,2.10
2023-02-07T06:15:07.279Z,2.10
2023-02-07T06:17:34.074Z,2.10
2023-02-07T06:20:00.828Z,2.10
2023-02-07T06:22:27.689Z,2.10
2023-02-07T06:24:54.445Z,2.10
2023-02-07T06:27:21.324Z,2.10
2023-02-07T06:29:48.080Z,2.20
2023-02-07T06:32:14.853Z,2.20
2023-02-07T06:34:41.661Z,2.30
2023-02-07T06:37:08.468Z,2.30
2023-02-07T06:39:35.263Z,2.40
2023-02-07T06:42:02.078Z,2.40
2023-02-07T06:44:28.843Z,2.40
2023-02-07T06:46:55.729Z,2.40
2023-02-07T06:49:22.592Z,2.40
2023-02-07T06:51:49.412Z,2.40
2023-02-07T06:54:16.244Z,2.40
2023-02-07T06:56:43.010Z,2.40
2023-02-07T06:59:09.790Z,2.40
2023-02-07T07:01:36.698Z,2.40
2023-02-07T07:04:03.573Z,2.40
2023-02-07T07:06:30.364Z,2.40
2023-02-07T07:08:57.158Z,2.40
2023-02-07T07:11:24.485Z,2.40
2023-02-07T07:13:51.310Z,2.50
2023-02-07T07:16:18.173Z,2.50
2023-02-07T07:18:45.083Z,2.60
2023-02-07T07:21:12.659Z,2.60
2023-02-07T07:23:39.602Z,2.60
2023-02-07T07:26:06.407Z,2.70
2023-02-07T07:28:33.264Z,2.70
2023-02-07T07:31:07.960Z,2.70
2023-02-07T07:33:35.114Z,2.60
2023-02-07T07:36:02.490Z,2.60
2023-02-07T07:38:29.496Z,2.60
2023-02-07T07:40:56.504Z,2.70
2023-02-07T07:43:23.469Z,2.70
2023-02-07T07:45:55.123Z,2.70
2023-02-07T07:48:23.600Z,2.80
2023-02-07T07:50:50.464Z,2.80
2023-02-07T07:53:18.399Z,2.80
2023-02-07T07:55:56.573Z,2.80
2023-02-07T07:58:25.438Z,2.80
2023-02-07T08:00:52.455Z,2.80
2023-02-07T08:03:19.842Z,2.90
2023-02-07T08:05:47.697Z,2.90
2023-02-07T08:08:15.275Z,2.90
2023-02-07T08:10:42.492Z,3.00
2023-02-07T08:13:09.741Z,3.00
2023-02-07T08:15:37.078Z,3.00
2023-02-07T08:18:04.101Z,3.00
2023-02-07T08:20:31.009Z,3.00
2023-02-07T08:22:58.174Z,3.00
2023-02-07T08:25:25.772Z,3.10
2023-02-07T08:27:52.914Z,3.10
2023-02-07T08:30:20.076Z,2.90
2023-02-07T08:32:47.066Z,2.90
2023-02-07T08:35:13.942Z,2.90
2023-02-07T08:37:40.826Z,2.90
2023-02-07T08:40:08.285Z,2.80
2023-02-07T08:42:35.150Z,2.80
2023-02-07T08:45:02.247Z,2.80
2023-02-07T08:47:29.109Z,2.90
2023-02-07T08:49:55.860Z,2.90
2023-02-07T08:52:24.035Z,3.00
2023-02-07T08:54:50.842Z,2.90
2023-02-07T08:57:20.106Z,3.00
2023-02-07T08:59:46.850Z,3.00
2023-02-07T09:02:13.696Z,3.10
2023-02-07T09:04:42.822Z,3.10
2023-02-07T09:07:12.376Z,3.10
2023-02-07T09:09:39.316Z,3.10
2023-02-07T09:12:06.977Z,3.20
2023-02-07T09:14:33.729Z,3.20
2023-02-07T09:17:00.606Z,3.20
2023-02-07T09:19:27.564Z,3.20
2023-02-07T09:21:54.422Z,3.30
2023-02-07T09:24:21.499Z,3.30
2023-02-07T09:26:48.545Z,3.30
2023-02-07T09:29:16.605Z,3.20
2023-02-07T09:31:43.751Z,3.30
2023-02-07T09:34:11.044Z,3.30
2023-02-07T09:36:37.873Z,3.20
2023-02-07T09:39:06.146Z,3.30
2023-02-07T09:41:52.659Z,3.30
2023-02-07T09:44:54.624Z,3.40
2023-02-07T09:47:23.716Z,3.40
2023-02-07T09:50:03.373Z,3.40
2023-02-07T09:52:54.181Z,3.50
2023-02-07T09:55:23.921Z,3.50
2023-02-07T09:57:56.395Z,3.50
2023-02-07T10:00:34.414Z,3.50
2023-02-07T10:03:20.131Z,3.50
2023-02-07T10:06:01.499Z,3.60
2023-02-07T10:08:40.523Z,3.50
2023-02-07T10:11:30.330Z,3.50
2023-02-07T10:13:59.926Z,3.50
2023-02-07T10:16:39.262Z,3.40
2023-02-07T10:19:37.007Z,3.50
2023-02-07T10:22:28.527Z,3.60
2023-02-07T10:25:21.571Z,3.60
2023-02-07T10:28:23.502Z,3.50
2023-02-07T10:30:54.509Z,3.50
2023-02-07T10:33:31.255Z,3.60
2023-02-07T10:36:01.577Z,3.60
2023-02-07T10:38:35.230Z,3.60
2023-02-07T10:41:04.907Z,3.70
2023-02-07T10:43:35.522Z,3.60
2023-02-07T10:46:14.456Z,3.70
2023-02-07T10:48:41.859Z,3.70
2023-02-07T10:51:31.881Z,3.70
2023-02-07T10:54:09.460Z,3.80
2023-02-07T10:56:42.957Z,3.90
2023-02-07T10:59:38.282Z,3.80
2023-02-07T11:02:34.957Z,3.80
2023-02-07T11:05:25.230Z,3.70
2023-02-07T11:08:04.108Z,3.70
2023-02-07T11:10:37.429Z,3.70
2023-02-07T11:13:11.013Z,3.70
2023-02-07T11:15:59.911Z,3.80
2023-02-07T11:18:43.465Z,3.90
2023-02-07T11:21:24.049Z,3.90
2023-02-07T11:35:21.043Z,3.90
2023-02-07T11:37:58.916Z,4.00
2023-02-07T11:40:43.812Z,4.00
2023-02-07T11:43:15.735Z,4.00
2023-02-07T11:45:47.486Z,4.00
2023-02-07T11:48:20.975Z,4.10
2023-02-07T11:50:53.025Z,4.10
2023-02-07T11:53:40.672Z,4.10
2023-02-07T11:56:20.513Z,4.10
2023-02-07T11:58:47.482Z,4.10
2023-02-07T12:01:18.851Z,4.10
2023-02-07T12:03:58.644Z,4.20
2023-02-07T12:06:31.978Z,4.20
2023-02-07T12:09:00.107Z,4.20
2023-02-07T12:11:34.075Z,4.20
2023-02-07T12:14:10.916Z,4.10
2023-02-07T12:16:51.256Z,4.10
2023-02-07T12:19:28.380Z,4.10
2023-02-07T12:22:05.372Z,4.20
2023-02-07T12:24:44.309Z,4.30
2023-02-07T12:27:19.705Z,4.40
2023-02-07T12:30:11.675Z,4.40
2023-02-07T12:33:01.281Z,4.50
2023-02-07T12:35:56.879Z,4.50
2023-02-07T12:38:34.743Z,4.40
2023-02-07T12:41:25.338Z,4.30
2023-02-07T12:44:26.993Z,4.40
2023-02-07T12:47:12.118Z,4.40
2023-02-07T12:50:00.952Z,4.40
2023-02-07T12:52:34.359Z,4.50
2023-02-07T12:55:24.001Z,4.50
2023-02-07T12:58:18.248Z,4.50
2023-02-07T13:00:55.457Z,4.40
2023-02-07T13:03:46.880Z,4.50
2023-02-07T13:06:13.604Z,4.40
2023-02-07T13:09:18.866Z,4.40
2023-02-07T13:12:42.601Z,4.40
2023-02-07T13:15:09.529Z,4.40
2023-02-07T13:17:57.151Z,4.30
2023-02-07T13:20:41.930Z,4.30
2023-02-07T13:23:30.633Z,4.40
2023-02-07T13:26:02.813Z,4.30
2023-02-07T13:28:48.892Z,4.30
2023-02-07T13:31:20.718Z,4.30
2023-02-07T13:33:50.136Z,4.40
2023-02-07T13:36:27.107Z,4.40
2023-02-07T13:38:53.882Z,4.40
2023-02-07T13:41:31.502Z,4.30
2023-02-07T13:44:09.382Z,4.30
2023-02-07T13:46:55.770Z,4.30
2023-02-07T13:49:33.287Z,4.40
2023-02-07T13:52:23.839Z,4.40
2023-02-07T13:55:05.666Z,4.50
2023-02-07T13:57:53.810Z,4.50
2023-02-07T14:00:25.161Z,4.50
2023-02-07T14:03:04.150Z,4.50
2023-02-07T14:05:36.388Z,4.60
2023-02-07T14:08:07.724Z,4.60
2023-02-07T14:10:36.349Z,4.70
2023-02-07T14:13:03.426Z,4.60
2023-02-07T14:15:38.864Z,4.60
2023-02-07T14:18:26.883Z,4.60
2023-02-07T14:21:02.135Z,4.50
2023-02-07T14:23:59.762Z,4.60
2023-02-07T14:26:42.929Z,4.70
2023-02-07T14:29:52.630Z,4.70
2023-02-07T14:32:19.431Z,4.70
2023-02-07T14:35:14.704Z,4.60
2023-02-07T14:37:53.942Z,4.70
2023-02-07T14:40:31.373Z,4.70
2023-02-07T14:43:17.871Z,4.70
2023-02-07T14:46:05.899Z,4.70
2023-02-07T14:48:41.454Z,4.70
2023-02-07T14:51:23.338Z,4.70
2023-02-07T14:54:08.108Z,4.70
2023-02-07T14:56:42.486Z,4.70
2023-02-07T14:59:16.185Z,4.70
2023-02-07T15:01:43.082Z,4.60
2023-02-07T15:04:12.110Z,4.60
2023-02-07T15:06:44.977Z,4.60
2023-02-07T15:09:26.500Z,4.40
2023-02-07T15:12:12.985Z,4.40
2023-02-07T15:14:46.977Z,4.40
2023-02-07T15:17:13.915Z,4.50
2023-02-07T15:19:42.138Z,4.50
2023-02-07T15:22:20.588Z,4.50
2023-02-07T15:24:55.491Z,4.50
2023-02-07T15:27:25.280Z,4.50
2023-02-07T15:30:04.131Z,4.60
2023-02-07T15:32:34.687Z,4.60
2023-02-07T15:35:18.020Z,4.50
2023-02-07T15:37:48.520Z,4.50
2023-02-07T15:40:20.779Z,4.50
2023-02-07T15:43:05.636Z,4.60
2023-02-07T15:45:34.068Z,4.60
2023-02-07T15:48:09.981Z,4.60
2023-02-07T15:50:38.363Z,4.70
2023-02-07T15:53:08.607Z,4.60
2023-02-07T15:55:47.711Z,4.60
2023-02-07T15:58:32.324Z,4.70
2023-02-07T16:01:04.021Z,4.70
2023-02-07T16:03:41.422Z,4.70
2023-02-07T16:06:22.146Z,4.70
2023-02-07T16:08:51.434Z,4.70
2023-02-07T16:11:27.230Z,4.70
2023-02-07T16:14:08.571Z,4.80
2023-02-07T16:16:41.398Z,4.80
2023-02-07T16:19:14.254Z,4.70
2023-02-07T16:21:43.103Z,4.60
2023-02-07T16:24:32.595Z,4.60
2023-02-07T16:27:00.722Z,4.60
2023-02-07T16:29:27.918Z,4.60
2023-02-07T16:31:55.383Z,4.60
2023-02-07T16:34:22.844Z,4.70
2023-02-07T16:36:52.812Z,4.60
2023-02-07T16:39:20.582Z,4.70
2023-02-07T16:41:54.300Z,4.70
2023-02-07T16:44:25.369Z,4.70
2023-02-07T16:46:52.774Z,4.70
2023-02-07T16:49:25.490Z,4.60
2023-02-07T16:51:53.092Z,4.60
2023-02-07T16:54:20.565Z,4.50
2023-02-07T16:56:58.424Z,4.50
2023-02-07T16:59:25.823Z,4.60
2023-02-07T17:01:54.157Z,4.50
2023-02-07T17:04:22.405Z,4.50
2023-02-07T17:06:49.911Z,4.50
2023-02-07T17:09:22.863Z,4.50
2023-02-07T17:11:50.286Z,4.50
2023-02-07T17:14:17.249Z,4.50
2023-02-07T17:16:44.433Z,4.50
2023-02-07T17:19:23.912Z,4.50
2023-02-07T17:21:51.876Z,4.50
2023-02-07T17:24:19.156Z,4.50
2023-02-07T17:26:49.515Z,4.50
2023-02-07T17:29:17.540Z,4.50
2023-02-07T17:31:45.507Z,4.40
2023-02-07T17:34:12.796Z,4.40
2023-02-07T17:36:43.174Z,4.40
2023-02-07T17:39:14.692Z,4.40
2023-02-07T17:41:41.633Z,4.40
2023-02-07T17:44:08.637Z,4.40
2023-02-07T17:46:35.719Z,4.40
2023-02-07T17:49:02.594Z,4.40
2023-02-07T17:51:29.582Z,4.40
2023-02-07T17:53:56.823Z,4.50
2023-02-07T17:56:24.904Z,4.50
2023-02-07T17:58:53.510Z,4.50
2023-02-07T18:01:20.692Z,4.50
2023-02-07T18:03:49.569Z,4.50
2023-02-07T18:06:18.149Z,4.50
2023-02-07T18:08:46.010Z,4.60
2023-02-07T18:11:14.324Z,4.60
2023-02-07T18:13:42.661Z,4.60
2023-02-07T18:16:12.814Z,4.60
2023-02-07T18:18:40.034Z,4.60
2023-02-07T18:21:06.900Z,4.60
2023-02-07T18:23:33.873Z,4.50
2023-02-07T18:26:00.823Z,4.60
2023-02-07T18:28:28.120Z,4.60
2023-02-07T18:30:55.005Z,4.60
2023-02-07T18:33:21.922Z,4.60
2023-02-07T18:35:51.425Z,4.60
2023-02-07T18:38:18.208Z,4.60
2023-02-07T18:40:45.014Z,4.60
2023-02-07T18:43:11.834Z,4.70
2023-02-07T18:45:42.379Z,4.60
2023-02-07T18:48:09.575Z,4.60
2023-02-07T18:50:36.568Z,4.60
2023-02-07T18:53:05.378Z,4.60
2023-02-07T18:55:32.174Z,4.60
2023-02-07T18:57:58.974Z,4.60
2023-02-07T19:00:25.790Z,4.60
2023-02-07T19:02:52.622Z,4.50
2023-02-07T19:05:20.612Z,4.50
2023-02-07T19:07:47.454Z,4.50
2023-02-07T19:10:16.521Z,4.60
2023-02-07T19:12:43.329Z,4.60
2023-02-07T19:15:10.355Z,4.50
2023-02-07T19:17:37.131Z,4.50
2023-02-07T19:20:04.203Z,4.50
2023-02-07T19:22:35.876Z,4.50
2023-02-07T19:25:05.030Z,4.40
2023-02-07T19:27:32.008Z,4.40
2023-02-07T19:29:58.967Z,4.40
2023-02-07T19:32:25.731Z,4.30
2023-02-07T19:34:52.565Z,4.20
2023-02-07T19:37:19.327Z,4.30
2023-02-07T19:39:46.291Z,4.30
2023-02-07T19:42:13.299Z,4.40
2023-02-07T19:44:40.064Z,4.50
2023-02-07T19:47:06.861Z,4.50
2023-02-07T19:49:33.685Z,4.50
2023-02-07T19:52:00.449Z,4.50
2023-02-07T19:54:27.412Z,4.50
2023-02-07T19:56:54.144Z,4.50
2023-02-07T19:59:21.022Z,4.50
2023-02-07T20:01:47.891Z,4.50
2023-02-07T20:04:14.862Z,4.50
2023-02-07T20:06:41.672Z,4.50
2023-02-07T20:09:08.522Z,4.50
2023-02-07T20:11:35.768Z,4.50
2023-02-07T20:14:03.596Z,4.50
2023-02-07T20:16:33.730Z,4.50
2023-02-07T20:19:01.202Z,4.50
2023-02-07T20:21:30.009Z,4.50
2023-02-07T20:23:57.701Z,4.40
2023-02-07T20:26:34.029Z,4.40
2023-02-07T20:29:02.458Z,4.40
2023-02-07T20:31:31.966Z,4.40
2023-02-07T20:33:59.525Z,4.40
2023-02-07T20:36:27.912Z,4.40
2023-02-07T20:38:57.951Z,4.40
2023-02-07T20:41:29.782Z,4.40
2023-02-07T20:44:04.901Z,4.40
2023-02-07T20:46:36.214Z,4.40
2023-02-07T20:49:06.127Z,4.40
2023-02-07T20:51:33.247Z,4.40
2023-02-07T20:54:01.795Z,4.40
2023-02-07T20:56:29.519Z,4.50
2023-02-07T20:58:58.041Z,4.50
2023-02-07T21:01:27.493Z,4.50
2023-02-07T21:03:56.286Z,4.50
2023-02-07T21:06:24.439Z,4.50
2023-02-07T21:08:58.664Z,4.50
2023-02-07T21:11:30.022Z,4.50
2023-02-07T21:13:57.017Z,4.60
2023-02-07T21:16:23.876Z,4.60
2023-02-07T21:18:50.740Z,4.60
2023-02-07T21:21:18.834Z,4.60
2023-02-07T21:23:46.041Z,4.70
2023-02-07T21:26:14.962Z,4.70
2023-02-07T21:28:43.557Z,4.60
2023-02-07T21:31:18.339Z,4.60
2023-02-07T21:33:45.808Z,4.70
2023-02-07T21:36:15.417Z,4.60
2023-02-07T21:38:45.344Z,4.50
2023-02-07T21:41:13.350Z,4.60
2023-02-07T21:43:40.716Z,4.60
2023-02-07T21:46:18.084Z,4.60
2023-02-07T21:48:50.497Z,4.70
2023-02-07T21:51:22.222Z,4.70
2023-02-07T21:53:50.968Z,4.60
2023-02-07T21:56:21.113Z,4.60
2023-02-07T21:58:52.516Z,4.60
2023-02-07T22:01:20.247Z,4.30
2023-02-07T22:03:48.662Z,4.30
2023-02-07T22:06:16.777Z,4.30
2023-02-07T22:08:52.637Z,4.10
2023-02-07T22:11:21.846Z,4.10
2023-02-07T22:13:50.466Z,4.10
2023-02-07T22:16:18.848Z,4.20
2023-02-07T22:18:45.859Z,4.20
2023-02-07T22:21:37.789Z,4.30
2023-02-07T22:24:05.935Z,4.30
2023-02-07T22:26:34.432Z,4.40
2023-02-07T22:29:02.046Z,4.40
2023-02-07T22:31:31.390Z,4.40
2023-02-07T22:34:00.811Z,4.40
2023-02-07T22:36:29.951Z,4.40
2023-02-07T22:38:59.101Z,4.50
2023-02-07T22:41:26.359Z,4.50
2023-02-07T22:43:53.221Z,4.40
2023-02-07T22:46:22.100Z,4.40
2023-02-07T22:48:49.124Z,4.50
2023-02-07T22:51:25.424Z,4.50
2023-02-07T22:53:57.999Z,4.50
2023-02-07T22:56:25.479Z,4.50
2023-02-07T22:58:53.885Z,4.40
2023-02-07T23:01:26.518Z,4.40
2023-02-07T23:03:54.198Z,4.30
2023-02-07T23:06:21.769Z,4.40
2023-02-07T23:08:50.040Z,4.40
2023-02-07T23:11:18.557Z,4.40
2023-02-07T23:13:45.496Z,4.50
2023-02-07T23:16:19.346Z,4.50
2023-02-07T23:18:46.740Z,4.40
2023-02-07T23:21:15.958Z,4.40
2023-02-07T23:23:43.557Z,4.30
2023-02-07T23:26:12.753Z,4.30
2023-02-07T23:28:40.386Z,4.30
2023-02-07T23:31:10.849Z,4.40
2023-02-07T23:33:38.284Z,4.40
2023-02-07T23:36:06.005Z,4.40
2023-02-07T23:38:33.711Z,4.40
2023-02-07T23:41:01.117Z,4.40
2023-02-07T23:43:28.520Z,4.40
2023-02-07T23:45:55.501Z,4.40
2023-02-07T23:48:22.579Z,4.40
2023-02-07T23:50:54.012Z,4.40
2023-02-07T23:53:21.173Z,4.40
2023-02-07T23:55:49.636Z,4.30
2023-02-07T23:58:17.154Z,4.40
